Time;durP1;ratioP1;P1;durP2;ratioP2;P2;SDS_P1;SDS_P2;PMS_P1;PMS_P2;Temp;Humidity;BMP_temperature;BMP_pressure;BME280_temperature;BME280_humidity;BME280_pressure;Samples;Min_cycle;Max_cycle;Signal;HPM_P1;HPM_P2
2023/09/23 00:00:33;;;;;;;15.80;5.25;;;;;;;;;;4400174;32;417103;-89
2023/09/23 00:03:01;;;;;;;27.37;5.90;;;;;;;;;;4410242;32;317983;-89
2023/09/23 00:05:32;;;;;;;20.75;5.78;;;;;;;;;;4395316;32;417216;-88
2023/09/23 00:07:59;;;;;;;19.85;5.15;;;;;;;;;;4414107;32;317643;-89
2023/09/23 00:10:27;;;;;;;22.20;6.03;;;;;;;;;;4403052;32;317731;-88
2023/09/23 00:12:55;;;;;;;31.73;6.05;;;;;;;;;;4412461;32;317827;-89
2023/09/23 00:15:23;;;;;;;21.77;6.55;;;;;;;;;;4397983;32;317650;-88
2023/09/23 00:17:54;;;;;;;20.40;5.22;;;;;;;;;;4410244;32;317909;-88
2023/09/23 00:20:22;;;;;;;23.08;6.47;;;;;;;;;;4401827;32;317607;-89
2023/09/23 00:22:54;;;;;;;23.12;5.40;;;;;;;;;;4413044;32;317754;-88
2023/09/23 00:25:23;;;;;;;19.85;6.12;;;;;;;;;;4399562;32;317818;-89
2023/09/23 00:27:53;;;;;;;17.45;5.97;;;;;;;;;;4410953;32;317996;-89
2023/09/23 00:30:22;;;;;;;24.48;5.53;;;;;;;;;;4403270;32;317880;-88
2023/09/23 00:32:52;;;;;;;16.17;5.00;;;;;;;;;;4412667;32;318023;-88
2023/09/23 00:35:19;;;;;;;29.25;7.32;;;;;;;;;;4397860;32;317770;-88
2023/09/23 00:37:48;;;;;;;26.50;6.05;;;;;;;;;;4411818;32;317636;-89
2023/09/23 00:40:17;;;;;;;24.23;6.00;;;;;;;;;;4402979;32;317800;-88
2023/09/23 00:42:47;;;;;;;23.87;6.40;;;;;;;;;;4411960;32;317778;-89
2023/09/23 00:45:17;;;;;;;15.55;6.15;;;;;;;;;;4402848;32;318256;-88
2023/09/23 00:47:46;;;;;;;26.08;6.82;;;;;;;;;;4410703;32;316877;-89
2023/09/23 00:50:19;;;;;;;19.67;6.65;;;;;;;;;;4400664;32;318037;-89
2023/09/23 00:52:49;;;;;;;22.95;6.53;;;;;;;;;;4412552;32;318081;-89
2023/09/23 00:55:18;;;;;;;26.85;7.68;;;;;;;;;;4400441;32;318064;-90
2023/09/23 00:57:48;;;;;;;21.45;6.68;;;;;;;;;;4412345;32;317842;-89
2023/09/23 01:00:24;;;;;;;28.73;6.90;;;;;;;;;;4401898;32;317870;-89
2023/09/23 01:02:52;;;;;;;21.58;6.93;;;;;;;;;;4411798;32;351155;-89
2023/09/23 01:05:21;;;;;;;14.63;6.28;;;;;;;;;;4399033;32;317871;-87
2023/09/23 01:07:48;;;;;;;30.92;6.40;;;;;;;;;;4412786;32;317695;-88
2023/09/23 01:10:17;;;;;;;12.32;4.68;;;;;;;;;;4401570;32;318563;-88
2023/09/23 01:12:47;;;;;;;19.00;6.65;;;;;;;;;;4412591;32;317856;-89
2023/09/23 01:15:18;;;;;;;23.98;6.03;;;;;;;;;;4401748;32;317929;-87
2023/09/23 01:17:49;;;;;;;23.95;6.72;;;;;;;;;;4411667;32;317792;-89
2023/09/23 01:20:17;;;;;;;22.00;6.05;;;;;;;;;;4401670;32;318153;-89
2023/09/23 01:22:47;;;;;;;23.83;6.57;;;;;;;;;;4412371;32;344385;-89
2023/09/23 01:25:16;;;;;;;21.75;6.82;;;;;;;;;;4402664;32;318166;-89
2023/09/23 01:27:44;;;;;;;21.77;5.78;;;;;;;;;;4415873;32;317969;-88
2023/09/23 01:30:12;;;;;;;19.62;5.72;;;;;;;;;;4403587;32;317798;-89
2023/09/23 01:32:47;;;;;;;18.02;7.03;;;;;;;;;;4415430;32;318125;-89
2023/09/23 01:35:16;;;;;;;31.35;7.32;;;;;;;;;;4404063;32;317949;-89
2023/09/23 01:37:46;;;;;;;23.35;7.65;;;;;;;;;;4409511;32;318081;-88
2023/09/23 01:40:17;;;;;;;14.52;6.07;;;;;;;;;;4404189;32;317998;-89
2023/09/23 01:42:48;;;;;;;20.80;6.18;;;;;;;;;;4413244;32;317858;-89
2023/09/23 01:45:22;;;;;;;21.50;6.82;;;;;;;;;;4404764;32;317995;-87
2023/09/23 01:47:50;;;;;;;22.58;7.25;;;;;;;;;;4416744;32;317949;-89
2023/09/23 01:50:18;;;;;;;21.35;7.85;;;;;;;;;;4405594;32;349530;-88
2023/09/23 01:52:47;;;;;;;31.58;8.18;;;;;;;;;;4416077;32;318104;-87
2023/09/23 01:55:17;;;;;;;26.25;7.78;;;;;;;;;;4406159;32;318184;-87
2023/09/23 01:57:47;;;;;;;24.25;7.28;;;;;;;;;;4417213;32;317818;-87
2023/09/23 02:00:22;;;;;;;26.83;7.25;;;;;;;;;;4405524;32;317614;-89
2023/09/23 02:02:49;;;;;;;28.85;6.93;;;;;;;;;;4413873;32;317862;-88
2023/09/23 02:05:18;;;;;;;22.95;7.87;;;;;;;;;;4402415;32;317903;-89
2023/09/23 02:07:50;;;;;;;18.17;6.50;;;;;;;;;;4414720;32;317533;-89
2023/09/23 02:10:17;;;;;;;26.42;7.12;;;;;;;;;;4405125;32;318042;-89
2023/09/23 02:12:45;;;;;;;24.63;6.43;;;;;;;;;;4412927;32;318000;-89
2023/09/23 02:15:15;;;;;;;23.87;6.00;;;;;;;;;;4404868;32;318004;-89
2023/09/23 02:17:43;;;;;;;25.55;6.82;;;;;;;;;;4414261;32;318056;-89
2023/09/23 02:20:17;;;;;;;19.57;5.63;;;;;;;;;;4403801;32;317938;-88
2023/09/23 02:22:47;;;;;;;25.02;6.82;;;;;;;;;;4414413;32;317974;-88
2023/09/23 02:25:17;;;;;;;20.83;6.18;;;;;;;;;;4402564;32;317978;-88
2023/09/23 02:27:46;;;;;;;21.73;5.78;;;;;;;;;;4413068;32;317932;-88
2023/09/23 02:30:14;;;;;;;19.60;5.50;;;;;;;;;;4402935;32;343146;-88
2023/09/23 02:32:43;;;;;;;20.25;6.07;;;;;;;;;;4413305;32;317801;-89
2023/09/23 02:35:12;;;;;;;23.40;6.32;;;;;;;;;;4402005;32;317765;-90
2023/09/23 02:37:40;;;;;;;12.40;5.60;;;;;;;;;;4410583;32;318090;-89
2023/09/23 02:40:14;;;;;;;20.75;5.75;;;;;;;;;;4402937;32;317559;-89
2023/09/23 02:42:42;;;;;;;17.92;5.30;;;;;;;;;;4414499;32;317865;-89
2023/09/23 02:45:11;;;;;;;22.63;6.87;;;;;;;;;;4398558;32;352475;-89
2023/09/23 02:47:38;;;;;;;19.42;6.97;;;;;;;;;;4409963;32;317851;-89
2023/09/23 02:50:09;;;;;;;15.93;5.32;;;;;;;;;;4402158;32;317744;-89
2023/09/23 02:52:39;;;;;;;31.02;6.62;;;;;;;;;;4413450;32;318049;-91
2023/09/23 02:55:12;;;;;;;16.05;5.22;;;;;;;;;;4402285;32;317811;-88
2023/09/23 02:57:40;;;;;;;16.92;6.03;;;;;;;;;;4410782;32;317623;-88
2023/09/23 03:00:16;;;;;;;16.58;5.10;;;;;;;;;;4403781;32;318308;-88
2023/09/23 03:02:48;;;;;;;23.83;6.18;;;;;;;;;;4411719;32;318116;-88
2023/09/23 03:05:17;;;;;;;16.58;5.93;;;;;;;;;;4401864;32;318046;-88
2023/09/23 03:07:47;;;;;;;22.83;6.78;;;;;;;;;;4411038;32;317792;-88
2023/09/23 03:10:19;;;;;;;21.17;5.87;;;;;;;;;;4403292;32;317908;-88
2023/09/23 03:13:01;;;;;;;31.60;6.20;;;;;;;;;;4411501;32;348512;-89
2023/09/23 03:15:34;;;;;;;17.65;6.28;;;;;;;;;;4396941;32;388094;-89
2023/09/23 03:18:02;;;;;;;27.13;6.62;;;;;;;;;;4414478;32;318018;-89
2023/09/23 03:20:30;;;;;;;23.45;5.93;;;;;;;;;;4399655;32;417013;-89
2023/09/23 03:22:58;;;;;;;22.87;6.22;;;;;;;;;;4414857;32;317818;-89
2023/09/23 03:25:27;;;;;;;26.45;6.53;;;;;;;;;;4396164;32;317926;-90
2023/09/23 03:27:55;;;;;;;18.75;5.82;;;;;;;;;;4412628;32;327570;-89
2023/09/23 03:30:23;;;;;;;21.80;5.93;;;;;;;;;;4403229;32;317948;-88
2023/09/23 03:32:50;;;;;;;14.90;4.75;;;;;;;;;;4413685;32;316748;-90
2023/09/23 03:35:22;;;;;;;21.65;5.85;;;;;;;;;;4398528;32;317923;-87
2023/09/23 03:37:51;;;;;;;21.55;6.65;;;;;;;;;;4413218;32;318037;-91
2023/09/23 03:40:20;;;;;;;29.00;6.12;;;;;;;;;;4403134;32;317931;-89
2023/09/23 03:42:50;;;;;;;29.45;6.80;;;;;;;;;;4412731;32;317738;-90
2023/09/23 03:45:19;;;;;;;28.62;5.35;;;;;;;;;;4400181;32;317975;-89
2023/09/23 03:47:47;;;;;;;25.55;6.00;;;;;;;;;;4413360;32;318044;-88
2023/09/23 03:50:15;;;;;;;19.80;6.25;;;;;;;;;;4399602;32;317649;-88
2023/09/23 03:52:44;;;;;;;26.95;6.35;;;;;;;;;;4412405;32;317486;-91
2023/09/23 03:55:13;;;;;;;26.33;6.55;;;;;;;;;;4400102;32;317783;-89
2023/09/23 03:57:42;;;;;;;19.35;6.37;;;;;;;;;;4411385;32;318111;-90
2023/09/23 04:00:16;;;;;;;22.77;6.53;;;;;;;;;;4399977;32;318326;-88
2023/09/23 04:02:47;;;;;;;27.87;6.45;;;;;;;;;;4414084;32;333974;-91
2023/09/23 04:05:15;;;;;;;22.55;6.62;;;;;;;;;;4402666;32;318146;-87
2023/09/23 04:07:50;;;;;;;21.40;7.07;;;;;;;;;;4406399;32;317775;-89
2023/09/23 04:10:19;;;;;;;21.77;6.87;;;;;;;;;;4403306;32;317684;-90
2023/09/23 04:12:47;;;;;;;20.52;7.10;;;;;;;;;;4413687;32;318020;-90
2023/09/23 04:15:19;;;;;;;17.95;7.15;;;;;;;;;;4403301;32;317996;-89
2023/09/23 04:17:47;;;;;;;19.17;7.22;;;;;;;;;;4409858;32;317791;-90
2023/09/23 04:20:15;;;;;;;28.67;6.93;;;;;;;;;;4403682;32;317861;-90
2023/09/23 04:22:46;;;;;;;22.37;8.82;;;;;;;;;;4413363;32;317724;-89
2023/09/23 04:25:16;;;;;;;18.87;8.88;;;;;;;;;;4401903;32;317782;-90
2023/09/23 04:27:43;;;;;;;20.92;7.78;;;;;;;;;;4412164;32;317718;-89
2023/09/23 04:30:13;;;;;;;30.33;9.05;;;;;;;;;;4400216;32;318212;-90
2023/09/23 04:32:42;;;;;;;32.15;9.90;;;;;;;;;;4412726;32;317702;-89
2023/09/23 04:35:11;;;;;;;19.90;7.97;;;;;;;;;;4401715;32;317927;-88
2023/09/23 04:37:39;;;;;;;24.48;8.40;;;;;;;;;;4408741;32;317892;-89
2023/09/23 04:40:10;;;;;;;26.95;9.25;;;;;;;;;;4400310;32;348747;-90
2023/09/23 04:42:38;;;;;;;24.23;7.07;;;;;;;;;;4412952;32;333006;-89
2023/09/23 04:45:07;;;;;;;20.60;7.35;;;;;;;;;;4399163;32;318172;-88
2023/09/23 04:47:35;;;;;;;25.70;7.28;;;;;;;;;;4408889;32;317768;-89
2023/09/23 04:50:05;;;;;;;24.98;7.50;;;;;;;;;;4412583;32;317733;-88
2023/09/23 04:52:32;;;;;;;13.05;7.47;;;;;;;;;;4398896;32;417032;-88
2023/09/23 04:54:59;;;;;;;24.25;9.93;;;;;;;;;;4413017;32;317791;-88
2023/09/23 04:57:27;;;;;;;21.40;8.57;;;;;;;;;;4398573;32;317859;-89
2023/09/23 04:59:57;;;;;;;17.25;8.88;;;;;;;;;;4412627;32;317673;-88
2023/09/23 05:02:25;;;;;;;21.08;7.82;;;;;;;;;;4404844;32;317922;-89
2023/09/23 05:04:53;;;;;;;26.42;8.48;;;;;;;;;;4415707;32;316999;-89
2023/09/23 05:07:23;;;;;;;35.72;10.45;;;;;;;;;;4401865;32;318072;-90
2023/09/23 05:09:50;;;;;;;30.40;8.20;;;;;;;;;;4414654;32;318804;-88
2023/09/23 05:12:19;;;;;;;31.25;9.02;;;;;;;;;;4403196;32;317886;-89
2023/09/23 05:14:46;;;;;;;21.45;7.85;;;;;;;;;;4403702;32;317779;-89
2023/09/23 05:17:15;;;;;;;21.33;8.55;;;;;;;;;;4409343;32;317911;-89
2023/09/23 05:19:46;;;;;;;26.15;8.32;;;;;;;;;;4414125;32;317954;-89
2023/09/23 05:22:13;;;;;;;19.80;8.98;;;;;;;;;;4400013;32;417183;-89
2023/09/23 05:24:47;;;;;;;28.58;7.93;;;;;;;;;;4415605;32;317778;-88
2023/09/23 05:27:15;;;;;;;30.95;9.30;;;;;;;;;;4395419;32;417283;-89
2023/09/23 05:29:44;;;;;;;24.20;8.98;;;;;;;;;;4413725;32;317928;-88
2023/09/23 05:32:12;;;;;;;19.20;9.10;;;;;;;;;;4401610;32;416260;-89
2023/09/23 05:34:39;;;;;;;27.25;9.50;;;;;;;;;;4412009;32;318088;-88
2023/09/23 05:37:12;;;;;;;22.73;8.45;;;;;;;;;;4398871;32;350247;-89
2023/09/23 05:39:45;;;;;;;23.40;8.95;;;;;;;;;;4416049;32;317854;-89
2023/09/23 05:42:15;;;;;;;20.02;7.85;;;;;;;;;;4401567;32;416908;-88
2023/09/23 05:44:43;;;;;;;24.65;8.18;;;;;;;;;;4415663;32;317801;-89
2023/09/23 05:47:11;;;;;;;17.62;8.43;;;;;;;;;;4398226;32;417427;-88
2023/09/23 05:49:39;;;;;;;25.30;7.93;;;;;;;;;;4414695;32;317981;-88
2023/09/23 05:52:06;;;;;;;23.38;8.60;;;;;;;;;;4403431;32;317727;-89
2023/09/23 05:54:34;;;;;;;15.40;7.18;;;;;;;;;;4415503;32;317895;-89
2023/09/23 05:57:03;;;;;;;22.37;7.72;;;;;;;;;;4399980;32;317973;-88
2023/09/23 05:59:31;;;;;;;16.23;7.18;;;;;;;;;;4414817;32;317593;-89
2023/09/23 06:01:58;;;;;;;16.25;8.38;;;;;;;;;;4402726;32;318262;-89
2023/09/23 06:04:25;;;;;;;16.65;7.32;;;;;;;;;;4414348;32;318068;-88
2023/09/23 06:06:54;;;;;;;26.42;7.97;;;;;;;;;;4402882;32;339762;-89
2023/09/23 06:09:22;;;;;;;26.85;7.47;;;;;;;;;;4412475;32;317607;-90
2023/09/23 06:11:52;;;;;;;26.98;7.05;;;;;;;;;;4404069;32;318129;-90
2023/09/23 06:14:21;;;;;;;20.75;7.78;;;;;;;;;;4413471;32;317742;-92
2023/09/23 06:16:48;;;;;;;21.10;7.87;;;;;;;;;;4403687;32;322441;-87
2023/09/23 06:19:16;;;;;;;22.80;7.03;;;;;;;;;;4412224;32;317740;-86
2023/09/23 06:21:43;;;;;;;25.25;7.57;;;;;;;;;;4413114;32;318014;-87
2023/09/23 06:24:11;;;;;;;21.12;8.52;;;;;;;;;;4413933;32;317903;-88
2023/09/23 06:26:39;;;;;;;19.90;7.80;;;;;;;;;;4414163;32;317669;-89
2023/09/23 06:29:09;;;;;;;20.92;8.02;;;;;;;;;;4398689;32;318089;-90
2023/09/23 06:31:38;;;;;;;32.47;7.78;;;;;;;;;;4410688;32;317538;-90
2023/09/23 06:34:06;;;;;;;28.38;7.43;;;;;;;;;;4404192;32;317751;-93
2023/09/23 06:36:34;;;;;;;21.67;8.07;;;;;;;;;;4414532;32;317786;-90
2023/09/23 06:39:02;;;;;;;20.95;7.55;;;;;;;;;;4402229;32;317686;-89
2023/09/23 06:41:29;;;;;;;20.65;8.43;;;;;;;;;;4411473;32;317898;-89
2023/09/23 06:43:57;;;;;;;36.30;8.95;;;;;;;;;;4402620;32;317962;-89
2023/09/23 06:46:24;;;;;;;15.30;6.78;;;;;;;;;;4412984;32;318194;-90
2023/09/23 06:48:55;;;;;;;28.17;8.38;;;;;;;;;;4402671;32;318009;-87
2023/09/23 06:51:22;;;;;;;31.95;11.43;;;;;;;;;;4414633;32;317743;-88
2023/09/23 06:53:50;;;;;;;23.08;9.80;;;;;;;;;;4404231;32;319144;-88
2023/09/23 06:56:17;;;;;;;24.17;9.77;;;;;;;;;;4412596;32;317938;-88
2023/09/23 06:58:44;;;;;;;36.47;12.82;;;;;;;;;;4403190;32;317638;-88
2023/09/23 07:01:12;;;;;;;26.37;11.85;;;;;;;;;;4407687;32;318992;-88
2023/09/23 07:03:39;;;;;;;28.35;12.27;;;;;;;;;;4413675;32;318786;-88
2023/09/23 07:06:08;;;;;;;27.42;10.70;;;;;;;;;;4403645;32;318869;-88
2023/09/23 07:08:35;;;;;;;30.33;11.25;;;;;;;;;;4412220;32;318740;-88
2023/09/23 07:11:02;;;;;;;22.25;11.05;;;;;;;;;;4403802;32;318742;-88
2023/09/23 07:13:30;;;;;;;38.92;10.50;;;;;;;;;;4408959;32;319115;-86
2023/09/23 07:15:58;;;;;;;20.90;9.60;;;;;;;;;;4402830;32;318689;-88
2023/09/23 07:18:25;;;;;;;27.77;9.40;;;;;;;;;;4412817;32;317688;-88
2023/09/23 07:20:57;;;;;;;32.85;9.55;;;;;;;;;;4402766;32;317880;-88
2023/09/23 07:23:26;;;;;;;22.55;9.10;;;;;;;;;;4411031;32;317972;-87
2023/09/23 07:25:54;;;;;;;21.40;7.78;;;;;;;;;;4403418;32;318439;-88
2023/09/23 07:28:21;;;;;;;29.27;7.95;;;;;;;;;;4412089;32;317980;-88
2023/09/23 07:30:48;;;;;;;22.77;7.95;;;;;;;;;;4401987;32;318293;-87
2023/09/23 07:33:16;;;;;;;21.17;9.25;;;;;;;;;;4410495;32;317800;-87
2023/09/23 07:35:44;;;;;;;28.65;9.63;;;;;;;;;;4405310;32;317674;-90
2023/09/23 07:38:12;;;;;;;25.50;8.40;;;;;;;;;;4412041;32;317878;-95
2023/09/23 07:40:41;;;;;;;24.58;8.02;;;;;;;;;;4413072;32;317604;-93
2023/09/23 07:43:08;;;;;;;35.78;8.07;;;;;;;;;;4394021;32;418867;-89
2023/09/23 07:45:36;;;;;;;16.42;7.05;;;;;;;;;;4412959;32;317589;-88
2023/09/23 07:48:03;;;;;;;21.17;6.80;;;;;;;;;;4403445;32;317613;-88
2023/09/23 07:50:31;;;;;;;20.08;7.07;;;;;;;;;;4412570;32;317878;-87
2023/09/23 07:52:59;;;;;;;20.12;6.50;;;;;;;;;;4400472;32;317801;-87
2023/09/23 07:55:27;;;;;;;20.00;6.97;;;;;;;;;;4413052;32;317695;-88
2023/09/23 07:57:56;;;;;;;21.42;6.97;;;;;;;;;;4401403;32;317507;-87
2023/09/23 08:00:24;;;;;;;22.17;6.50;;;;;;;;;;4412872;32;317908;-87
2023/09/23 08:02:52;;;;;;;16.15;6.20;;;;;;;;;;4400245;32;317628;-87
2023/09/23 08:05:23;;;;;;;17.37;6.32;;;;;;;;;;4407384;32;317770;-88
2023/09/23 08:07:52;;;;;;;22.17;7.12;;;;;;;;;;4403361;32;317637;-88
2023/09/23 08:10:20;;;;;;;20.88;6.70;;;;;;;;;;4412678;32;318099;-87
2023/09/23 08:12:47;;;;;;;26.00;7.15;;;;;;;;;;4402086;32;343776;-86
2023/09/23 08:15:19;;;;;;;26.27;8.00;;;;;;;;;;4410160;32;316748;-87
2023/09/23 08:17:47;;;;;;;29.85;8.10;;;;;;;;;;4403618;32;318035;-87
2023/09/23 08:20:17;;;;;;;33.50;8.60;;;;;;;;;;4408492;32;348353;-87
2023/09/23 08:22:46;;;;;;;21.08;6.97;;;;;;;;;;4402592;32;317629;-87
2023/09/23 08:25:13;;;;;;;25.12;6.60;;;;;;;;;;4407419;32;333660;-88
2023/09/23 08:27:42;;;;;;;26.42;6.93;;;;;;;;;;4412336;32;317835;-87
2023/09/23 08:30:10;;;;;;;26.55;7.15;;;;;;;;;;4397857;32;387942;-88
2023/09/23 08:32:40;;;;;;;27.50;6.00;;;;;;;;;;4414180;32;317943;-89
2023/09/23 08:35:08;;;;;;;16.17;5.85;;;;;;;;;;4397891;32;317730;-88
2023/09/23 08:37:35;;;;;;;19.58;5.75;;;;;;;;;;4412175;32;317867;-88
2023/09/23 08:40:10;;;;;;;21.98;6.78;;;;;;;;;;4402305;32;317657;-88
2023/09/23 08:42:38;;;;;;;22.13;6.57;;;;;;;;;;4412403;32;317705;-88
2023/09/23 08:45:08;;;;;;;23.05;5.87;;;;;;;;;;4397252;32;354020;-88
2023/09/23 08:47:37;;;;;;;24.92;6.78;;;;;;;;;;4395669;32;329916;-88
2023/09/23 08:50:09;;;;;;;28.00;6.22;;;;;;;;;;4400329;32;317978;-89
2023/09/23 08:52:37;;;;;;;23.60;6.25;;;;;;;;;;4414073;32;317754;-88
2023/09/23 08:55:07;;;;;;;27.15;6.82;;;;;;;;;;4396913;32;318135;-88
2023/09/23 08:57:35;;;;;;;33.90;6.78;;;;;;;;;;4410864;32;317740;-88
2023/09/23 09:00:07;;;;;;;20.00;6.07;;;;;;;;;;4400469;32;317969;-88
2023/09/23 09:02:35;;;;;;;24.87;6.53;;;;;;;;;;4390975;32;317770;-88
2023/09/23 09:05:05;;;;;;;29.42;6.55;;;;;;;;;;4398901;32;317959;-89
2023/09/23 09:07:36;;;;;;;26.30;7.28;;;;;;;;;;4410599;32;316705;-87
2023/09/23 09:10:04;;;;;;;22.77;7.12;;;;;;;;;;4402177;32;317965;-88
2023/09/23 09:12:33;;;;;;;19.60;6.72;;;;;;;;;;4411921;32;316645;-88
2023/09/23 09:15:00;;;;;;;16.55;5.93;;;;;;;;;;4397491;32;341402;-90
2023/09/23 09:17:28;;;;;;;31.48;6.03;;;;;;;;;;4412618;32;317966;-89
2023/09/23 09:19:56;;;;;;;25.05;6.32;;;;;;;;;;4400437;32;317805;-88
2023/09/23 09:22:24;;;;;;;31.15;6.18;;;;;;;;;;4409068;32;317748;-88
2023/09/23 09:24:56;;;;;;;35.22;6.80;;;;;;;;;;4401358;32;317782;-88
2023/09/23 09:27:25;;;;;;;29.40;5.85;;;;;;;;;;4409583;32;317844;-89
2023/09/23 09:29:52;;;;;;;21.30;6.68;;;;;;;;;;4402100;32;317846;-89
2023/09/23 09:32:24;;;;;;;23.12;5.87;;;;;;;;;;4409531;32;317675;-89
2023/09/23 09:34:59;;;;;;;14.05;5.75;;;;;;;;;;4400725;32;317952;-89
2023/09/23 09:37:28;;;;;;;27.85;7.00;;;;;;;;;;4411262;32;317766;-89
2023/09/23 09:39:59;;;;;;;23.98;6.12;;;;;;;;;;4398722;32;317868;-89
2023/09/23 09:42:28;;;;;;;20.27;5.95;;;;;;;;;;4413120;32;317857;-88
2023/09/23 09:44:58;;;;;;;26.92;6.05;;;;;;;;;;4399555;32;317991;-87
2023/09/23 09:47:27;;;;;;;27.33;6.45;;;;;;;;;;4412045;32;317864;-88
2023/09/23 09:49:55;;;;;;;33.97;7.20;;;;;;;;;;4404014;32;317832;-89
2023/09/23 09:52:23;;;;;;;22.60;5.70;;;;;;;;;;4413968;32;317938;-88
2023/09/23 09:54:53;;;;;;;31.52;6.53;;;;;;;;;;4406199;32;317944;-89
2023/09/23 09:57:23;;;;;;;19.90;6.05;;;;;;;;;;4408329;32;318489;-89
2023/09/23 09:59:52;;;;;;;23.65;6.40;;;;;;;;;;4404400;32;317906;-89
2023/09/23 10:02:21;;;;;;;34.63;6.97;;;;;;;;;;4415542;32;317803;-89
2023/09/23 10:04:49;;;;;;;19.92;6.05;;;;;;;;;;4404431;32;317765;-89
2023/09/23 10:07:18;;;;;;;25.00;5.45;;;;;;;;;;4407142;32;317692;-89
2023/09/23 10:09:58;;;;;;;39.40;6.55;;;;;;;;;;4402838;32;317717;-88
2023/09/23 10:12:29;;;;;;;25.17;6.80;;;;;;;;;;4414609;32;317832;-89
2023/09/23 10:14:57;;;;;;;32.13;7.35;;;;;;;;;;4404167;32;317945;-89
2023/09/23 10:17:32;;;;;;;33.95;7.37;;;;;;;;;;4411955;32;318074;-90
2023/09/23 10:20:08;;;;;;;25.90;7.03;;;;;;;;;;4403679;32;317733;-88
2023/09/23 10:22:35;;;;;;;22.80;6.87;;;;;;;;;;4414634;32;317931;-89
2023/09/23 10:25:04;;;;;;;40.45;6.65;;;;;;;;;;4399520;32;318292;-90
2023/09/23 10:27:36;;;;;;;26.20;6.85;;;;;;;;;;4413139;32;316683;-89
2023/09/23 10:30:06;;;;;;;32.55;6.43;;;;;;;;;;4404920;32;318002;-88
2023/09/23 10:32:34;;;;;;;21.17;7.07;;;;;;;;;;4416132;32;318053;-89
2023/09/23 10:35:01;;;;;;;29.25;6.28;;;;;;;;;;4400519;32;317922;-89
2023/09/23 10:37:30;;;;;;;37.22;6.25;;;;;;;;;;4413965;32;317892;-89
2023/09/23 10:40:06;;;;;;;25.23;5.40;;;;;;;;;;4401610;32;317762;-89
2023/09/23 10:42:35;;;;;;;32.88;6.82;;;;;;;;;;4413896;32;318273;-89
2023/09/23 10:45:03;;;;;;;19.77;5.90;;;;;;;;;;4399505;32;317908;-89
2023/09/23 10:47:30;;;;;;;30.73;6.72;;;;;;;;;;4411619;32;317820;-89
2023/09/23 10:49:58;;;;;;;33.30;6.55;;;;;;;;;;4402445;32;318127;-89
2023/09/23 10:52:25;;;;;;;25.05;5.00;;;;;;;;;;4413870;32;318033;-90
2023/09/23 10:54:53;;;;;;;24.42;7.30;;;;;;;;;;4401084;32;318065;-89
2023/09/23 10:57:23;;;;;;;22.70;4.87;;;;;;;;;;4413167;32;317971;-89
2023/09/23 10:59:52;;;;;;;26.70;5.95;;;;;;;;;;4401958;32;317975;-89
2023/09/23 11:02:20;;;;;;;27.15;5.93;;;;;;;;;;4413982;32;317910;-89
2023/09/23 11:04:49;;;;;;;26.27;6.55;;;;;;;;;;4398605;32;318497;-89
2023/09/23 11:07:17;;;;;;;30.55;6.18;;;;;;;;;;4408664;32;318174;-89
2023/09/23 11:09:46;;;;;;;22.10;5.80;;;;;;;;;;4400946;32;317912;-89
2023/09/23 11:12:15;;;;;;;28.10;5.80;;;;;;;;;;4413597;32;317745;-89
2023/09/23 11:14:44;;;;;;;26.60;6.85;;;;;;;;;;4413678;32;318183;-88
2023/09/23 11:17:25;;;;;;;35.40;6.72;;;;;;;;;;4395428;32;419643;-89
2023/09/23 11:19:56;;;;;;;41.75;7.22;;;;;;;;;;4403151;32;317825;-88
2023/09/23 11:22:25;;;;;;;22.10;6.57;;;;;;;;;;4413336;32;345208;-89
2023/09/23 11:24:52;;;;;;;25.52;6.72;;;;;;;;;;4402743;32;317737;-89
2023/09/23 11:27:20;;;;;;;27.50;5.93;;;;;;;;;;4409993;32;318258;-88
2023/09/23 11:29:48;;;;;;;20.62;5.95;;;;;;;;;;4404584;32;318219;-88
2023/09/23 11:32:20;;;;;;;38.20;6.60;;;;;;;;;;4413699;32;317760;-90
2023/09/23 11:34:50;;;;;;;26.17;6.68;;;;;;;;;;4404026;32;318432;-89
2023/09/23 11:37:20;;;;;;;27.87;5.37;;;;;;;;;;4408875;32;317783;-89
2023/09/23 11:39:48;;;;;;;29.00;6.10;;;;;;;;;;4400002;32;317928;-90
2023/09/23 11:42:15;;;;;;;26.10;6.05;;;;;;;;;;4412825;32;317740;-88
2023/09/23 11:44:43;;;;;;;31.02;6.90;;;;;;;;;;4413266;32;317623;-93
2023/09/23 11:47:11;;;;;;;29.10;5.15;;;;;;;;;;4396527;32;417417;-87
2023/09/23 11:49:38;;;;;;;34.20;7.12;;;;;;;;;;4415881;32;318590;-89
2023/09/23 11:52:12;;;;;;;22.60;5.35;;;;;;;;;;4403350;32;317737;-89
2023/09/23 11:54:42;;;;;;;22.70;5.80;;;;;;;;;;4413949;32;317924;-89
2023/09/23 11:57:09;;;;;;;29.10;5.53;;;;;;;;;;4397416;32;417246;-89
2023/09/23 11:59:37;;;;;;;35.38;6.00;;;;;;;;;;4413752;32;318029;-88
2023/09/23 12:02:04;;;;;;;30.23;7.30;;;;;;;;;;4405408;32;317947;-87
2023/09/23 12:04:32;;;;;;;42.97;6.97;;;;;;;;;;4415039;32;317823;-88
2023/09/23 12:07:02;;;;;;;35.67;6.78;;;;;;;;;;4404936;32;317701;-88
2023/09/23 12:09:34;;;;;;;24.15;6.15;;;;;;;;;;4410736;32;317976;-88
2023/09/23 12:12:01;;;;;;;34.75;6.07;;;;;;;;;;4401623;32;317975;-89
2023/09/23 12:14:29;;;;;;;39.05;7.37;;;;;;;;;;4411441;32;318183;-89
2023/09/23 12:16:57;;;;;;;35.58;6.82;;;;;;;;;;4400194;32;317613;-88
2023/09/23 12:19:24;;;;;;;44.75;7.47;;;;;;;;;;4410393;32;318034;-91
2023/09/23 12:21:52;;;;;;;38.83;6.05;;;;;;;;;;4403237;32;317816;-91
2023/09/23 12:24:20;;;;;;;46.42;7.57;;;;;;;;;;4411831;32;317748;-87
2023/09/23 12:26:48;;;;;;;48.63;7.50;;;;;;;;;;4400293;32;318102;-88
2023/09/23 12:29:16;;;;;;;31.95;7.00;;;;;;;;;;4408158;32;317812;-92
2023/09/23 12:31:43;;;;;;;40.75;8.15;;;;;;;;;;4412825;32;317549;-90
2023/09/23 12:34:10;;;;;;;56.72;8.27;;;;;;;;;;4398249;32;416962;-94
2023/09/23 12:36:39;;;;;;;33.88;6.68;;;;;;;;;;4412575;32;317902;-89
2023/09/23 12:39:06;;;;;;;58.78;7.07;;;;;;;;;;4396567;32;317580;-89
2023/09/23 12:41:35;;;;;;;52.45;8.10;;;;;;;;;;4411203;32;317651;-88
2023/09/23 12:44:05;;;;;;;66.15;8.75;;;;;;;;;;4400519;32;317888;-87
2023/09/23 12:46:32;;;;;;;44.03;7.70;;;;;;;;;;4411423;32;317735;-89
2023/09/23 12:49:00;;;;;;;51.70;8.07;;;;;;;;;;4397808;32;317605;-88
2023/09/23 12:51:29;;;;;;;54.47;9.32;;;;;;;;;;4413074;32;317709;-88
2023/09/23 12:53:56;;;;;;;48.72;8.32;;;;;;;;;;4401572;32;317618;-87
2023/09/23 12:56:23;;;;;;;48.30;7.57;;;;;;;;;;4411262;32;317819;-88
2023/09/23 12:58:51;;;;;;;45.58;8.00;;;;;;;;;;4403042;32;318222;-88
2023/09/23 13:01:20;;;;;;;58.30;7.93;;;;;;;;;;4407753;32;317740;-88
2023/09/23 13:03:48;;;;;;;48.60;8.05;;;;;;;;;;4402670;32;317958;-90
2023/09/23 13:06:15;;;;;;;34.42;7.12;;;;;;;;;;4410133;32;317793;-89
2023/09/23 13:08:43;;;;;;;43.08;8.95;;;;;;;;;;4412700;32;317712;-89
2023/09/23 13:11:10;;;;;;;56.10;8.35;;;;;;;;;;4393980;32;417087;-89
2023/09/23 13:13:38;;;;;;;51.42;7.72;;;;;;;;;;4410470;32;317913;-88
2023/09/23 13:16:08;;;;;;;54.80;8.23;;;;;;;;;;4401423;32;317798;-90
2023/09/23 13:18:37;;;;;;;54.58;7.93;;;;;;;;;;4412213;32;317725;-88
2023/09/23 13:21:04;;;;;;;43.05;7.40;;;;;;;;;;4401075;32;317889;-89
2023/09/23 13:23:33;;;;;;;47.75;9.13;;;;;;;;;;4411338;32;317922;-89
2023/09/23 13:26:02;;;;;;;42.25;8.27;;;;;;;;;;4405697;32;318014;-89
2023/09/23 13:28:29;;;;;;;44.13;8.23;;;;;;;;;;4415001;32;344823;-89
2023/09/23 13:30:57;;;;;;;50.47;9.35;;;;;;;;;;4401169;32;317913;-88
2023/09/23 13:33:26;;;;;;;45.53;8.80;;;;;;;;;;4414470;32;318002;-89
2023/09/23 13:35:55;;;;;;;47.78;7.95;;;;;;;;;;4403958;32;331001;-89
2023/09/23 13:38:22;;;;;;;33.83;8.52;;;;;;;;;;4415174;32;317658;-90
2023/09/23 13:40:50;;;;;;;42.00;8.77;;;;;;;;;;4404208;32;317926;-89
2023/09/23 13:43:17;;;;;;;51.35;8.68;;;;;;;;;;4410678;32;317812;-89
2023/09/23 13:45:45;;;;;;;41.03;7.47;;;;;;;;;;4401711;32;376270;-88
2023/09/23 13:48:13;;;;;;;46.45;7.95;;;;;;;;;;4414752;32;317714;-88
2023/09/23 13:50:40;;;;;;;48.53;7.75;;;;;;;;;;4413451;32;317745;-89
2023/09/23 13:53:09;;;;;;;45.67;8.90;;;;;;;;;;4399996;32;346960;-88
2023/09/23 13:55:36;;;;;;;40.85;8.52;;;;;;;;;;4415055;32;317696;-89
2023/09/23 13:58:04;;;;;;;43.20;8.82;;;;;;;;;;4403963;32;317628;-89
2023/09/23 14:00:33;;;;;;;43.10;7.55;;;;;;;;;;4415569;32;317772;-89
2023/09/23 14:03:01;;;;;;;62.55;9.75;;;;;;;;;;4402914;32;330646;-90
2023/09/23 14:05:28;;;;;;;52.38;9.05;;;;;;;;;;4411759;32;318291;-89
2023/09/23 14:07:56;;;;;;;38.78;8.55;;;;;;;;;;4403094;32;317733;-88
2023/09/23 14:10:25;;;;;;;44.67;8.10;;;;;;;;;;4414613;32;317982;-89
2023/09/23 14:12:55;;;;;;;53.03;9.52;;;;;;;;;;4403604;32;318173;-88
2023/09/23 14:15:24;;;;;;;48.97;8.15;;;;;;;;;;4411443;32;317683;-89
2023/09/23 14:17:51;;;;;;;48.10;8.15;;;;;;;;;;4403972;32;317702;-89
2023/09/23 14:20:19;;;;;;;44.80;6.37;;;;;;;;;;4413548;32;317679;-89
2023/09/23 14:22:48;;;;;;;53.90;8.05;;;;;;;;;;4403347;32;317715;-88
2023/09/23 14:25:17;;;;;;;39.58;8.15;;;;;;;;;;4409034;32;317890;-89